createdAt,value
2019-05-12T00:01:19.923Z,17.53
2019-05-12T00:06:25.346Z,14.80
2019-05-12T00:11:30.690Z,14.30
2019-05-12T00:16:35.627Z,14.83
2019-05-12T00:21:41.502Z,16.57
2019-05-12T00:26:47.814Z,16.13
2019-05-12T00:31:53.044Z,15.43
2019-05-12T00:36:58.515Z,16.47
2019-05-12T00:42:03.491Z,19.33
2019-05-12T00:47:08.821Z,15.57
2019-05-12T00:52:14.194Z,18.77
2019-05-12T00:57:19.520Z,17.07
2019-05-12T01:02:25.187Z,13.43
2019-05-12T01:07:30.432Z,14.93
2019-05-12T01:12:35.389Z,13.60
2019-05-12T01:17:40.584Z,17.07
2019-05-12T01:22:50.410Z,17.90
2019-05-12T01:27:54.071Z,15.30
2019-05-12T01:32:59.801Z,16.73
2019-05-12T01:38:07.999Z,15.03
2019-05-12T01:43:13.107Z,17.57
2019-05-12T01:48:18.576Z,15.47
2019-05-12T01:53:23.609Z,14.00
2019-05-12T01:58:28.957Z,21.83
2019-05-12T02:03:33.906Z,17.33
2019-05-12T02:14:21.299Z,14.47
2019-05-12T02:19:28.242Z,18.63
2019-05-12T02:24:33.659Z,16.63
2019-05-12T02:29:38.886Z,14.77
2019-05-12T02:34:45.707Z,14.20
2019-05-12T02:39:51.528Z,16.77
2019-05-12T02:45:15.857Z,17.00
2019-05-12T02:50:40.075Z,19.03
2019-05-12T02:55:47.811Z,16.57
2019-05-12T03:00:56.089Z,18.07
2019-05-12T03:06:05.474Z,21.70
2019-05-12T03:11:29.349Z,23.47
2019-05-12T03:16:35.092Z,16.87
2019-05-12T03:22:00.168Z,20.60
2019-05-12T03:27:05.348Z,21.07
2019-05-12T03:32:10.550Z,19.27
2019-05-12T03:37:17.615Z,18.80
2019-05-12T03:42:25.059Z,18.00
2019-05-12T03:47:29.505Z,18.40
2019-05-12T03:52:35.206Z,18.60
2019-05-12T03:57:40.622Z,17.80
2019-05-12T04:02:45.968Z,18.13
2019-05-12T04:07:54.490Z,20.53
2019-05-12T04:12:58.141Z,19.87
2019-05-12T04:18:05.701Z,16.60
2019-05-12T04:23:09.942Z,22.60
2019-05-12T04:28:15.383Z,17.30
2019-05-12T04:33:20.865Z,18.60
2019-05-12T04:38:26.103Z,17.90
2019-05-12T04:43:31.286Z,20.60
2019-05-12T04:48:36.398Z,19.07
2019-05-12T04:53:44.664Z,20.30
2019-05-12T04:58:48.349Z,18.80
2019-05-12T05:03:54.509Z,17.87
2019-05-12T05:09:00.129Z,17.57
2019-05-12T05:14:06.324Z,18.73
2019-05-12T05:19:13.317Z,19.07
2019-05-12T05:24:18.255Z,18.80
2019-05-12T05:29:24.046Z,21.77
2019-05-12T05:34:29.167Z,22.10
2019-05-12T05:39:35.783Z,19.40
2019-05-12T05:44:40.620Z,21.30
2019-05-12T05:49:45.998Z,15.97
2019-05-12T05:54:53.137Z,21.20
2019-05-12T05:59:58.040Z,17.07
2019-05-12T06:05:04.432Z,18.70
2019-05-12T06:10:11.263Z,24.23
2019-05-12T06:15:16.539Z,22.63
2019-05-12T06:20:23.758Z,20.17
2019-05-12T06:25:44.545Z,24.20
2019-05-12T06:30:43.928Z,22.77
2019-05-12T06:35:45.083Z,27.20
2019-05-12T06:40:50.699Z,21.50
2019-05-12T06:45:56.160Z,21.30
2019-05-12T06:51:03.883Z,22.47
2019-05-12T06:56:09.490Z,26.43
2019-05-12T07:01:19.377Z,29.07
2019-05-12T07:06:24.792Z,28.73
2019-05-12T07:11:41.508Z,27.03
2019-05-12T07:17:01.519Z,27.97
2019-05-12T07:22:18.104Z,26.03
2019-05-12T07:27:13.946Z,23.53
2019-05-12T07:32:21.653Z,27.07
2019-05-12T07:37:29.984Z,25.33
2019-05-12T07:42:39.316Z,23.00
2019-05-12T07:47:41.678Z,23.63
2019-05-12T07:52:47.033Z,23.97
2019-05-12T07:57:58.079Z,22.17
2019-05-12T08:02:58.694Z,19.73
2019-05-12T08:08:10.647Z,22.53
2019-05-12T08:13:10.921Z,18.37
2019-05-12T08:18:16.242Z,16.63
2019-05-12T08:23:23.261Z,18.13
2019-05-12T08:28:36.106Z,18.03
2019-05-12T08:33:35.197Z,14.90
2019-05-12T08:38:40.574Z,17.73
2019-05-12T08:43:49.566Z,15.00
2019-05-12T08:49:00.032Z,14.00
2019-05-12T08:54:05.395Z,18.90
2019-05-12T08:59:09.581Z,21.17
2019-05-12T09:04:18.008Z,19.60
2019-05-12T09:09:19.449Z,21.70
2019-05-12T09:14:24.500Z,20.67
2019-05-12T09:19:29.680Z,15.33
2019-05-12T09:24:34.641Z,21.40
2019-05-12T09:29:40.054Z,15.90
2019-05-12T09:34:52.735Z,18.77
2019-05-12T09:39:53.849Z,14.77
2019-05-12T09:44:59.969Z,12.17
2019-05-12T09:50:09.605Z,11.60
2019-05-12T09:55:34.317Z,10.17
2019-05-12T10:00:39.678Z,8.60
2019-05-12T10:05:44.820Z,9.67
2019-05-12T10:10:49.815Z,5.53
2019-05-12T10:15:58.764Z,9.40
2019-05-12T10:21:20.999Z,8.73
2019-05-12T10:26:26.967Z,6.77
2019-05-12T10:31:35.780Z,8.17
2019-05-12T10:36:39.182Z,7.47
2019-05-12T10:41:46.078Z,8.17
2019-05-12T10:46:53.803Z,5.37
2019-05-12T10:51:59.438Z,3.80
2019-05-12T10:57:05.133Z,7.93
2019-05-12T11:02:10.537Z,5.70
2019-05-12T11:07:16.137Z,5.00
2019-05-12T11:12:25.280Z,4.47
2019-05-12T11:17:30.082Z,5.23
2019-05-12T11:22:54.530Z,5.30
2019-05-12T11:27:59.793Z,5.27
2019-05-12T11:33:04.886Z,9.27
2019-05-12T11:38:09.969Z,4.67
2019-05-12T11:43:15.166Z,4.53
2019-05-12T11:48:23.331Z,4.93
2019-05-12T11:53:31.138Z,7.43
2019-05-12T11:58:35.184Z,5.07
2019-05-12T12:03:40.314Z,9.03
2019-05-12T12:08:45.490Z,8.90
2019-05-12T12:13:53.442Z,5.20
2019-05-12T12:19:02.720Z,6.00
2019-05-12T12:24:30.018Z,8.23
2019-05-12T12:29:30.737Z,7.03
2019-05-12T12:34:35.731Z,7.00
2019-05-12T12:39:40.775Z,5.83
2019-05-12T12:44:46.237Z,6.83
2019-05-12T12:49:51.611Z,8.70
2019-05-12T12:54:59.342Z,9.00
2019-05-12T13:00:03.906Z,7.43
2019-05-12T13:05:28.498Z,10.00
2019-05-12T13:10:33.818Z,11.93
2019-05-12T13:15:38.743Z,7.23
2019-05-12T13:20:44.001Z,8.00
2019-05-12T13:25:51.944Z,7.33
2019-05-12T13:31:07.949Z,8.10
2019-05-12T13:36:04.295Z,11.87
2019-05-12T13:41:14.701Z,9.40
2019-05-12T13:46:16.764Z,7.80
2019-05-12T13:51:24.172Z,11.60
2019-05-12T13:56:32.958Z,11.57
2019-05-12T14:01:40.110Z,8.53
2019-05-12T14:06:42.699Z,11.20
2019-05-12T14:11:48.217Z,10.00
2019-05-12T14:16:59.094Z,8.83
2019-05-12T14:22:00.318Z,13.37
2019-05-12T14:27:05.686Z,12.20
2019-05-12T14:32:12.303Z,9.87
2019-05-12T14:37:18.056Z,10.53
2019-05-12T14:42:26.095Z,9.73
2019-05-12T14:47:30.452Z,9.50
2019-05-12T14:52:35.741Z,9.03
2019-05-12T14:57:41.060Z,13.13
2019-05-12T15:02:46.464Z,8.70
2019-05-12T15:07:56.791Z,9.87
2019-05-12T15:12:58.398Z,9.83
2019-05-12T15:18:08.948Z,9.27
2019-05-12T15:23:10.439Z,8.97
2019-05-12T15:28:15.881Z,8.00
2019-05-12T15:33:20.925Z,6.83
2019-05-12T15:38:26.303Z,8.97
2019-05-12T15:43:35.717Z,9.70
2019-05-12T15:48:38.798Z,8.43
2019-05-12T15:53:44.588Z,7.60
2019-05-12T15:58:50.155Z,10.13
2019-05-12T16:03:55.489Z,5.30
2019-05-12T16:09:01.258Z,8.57
2019-05-12T16:14:30.364Z,6.23
2019-05-12T16:19:34.514Z,7.20
2019-05-12T16:24:43.409Z,8.00
2019-05-12T16:29:49.912Z,6.20
2019-05-12T16:34:54.142Z,8.93
2019-05-12T16:39:59.570Z,8.17
2019-05-12T16:45:20.177Z,7.37
2019-05-12T16:50:49.280Z,8.07
2019-05-12T16:55:54.207Z,11.30
2019-05-12T17:00:59.223Z,8.63
2019-05-12T17:06:47.143Z,15.83
2019-05-12T17:12:23.919Z,6.77
2019-05-12T17:17:44.789Z,8.60
2019-05-12T17:23:03.421Z,9.33
2019-05-12T17:28:13.280Z,9.83
2019-05-12T17:33:34.282Z,10.00
2019-05-12T17:38:39.922Z,7.53
2019-05-12T17:43:54.924Z,9.37
2019-05-12T17:48:53.265Z,8.67
2019-05-12T17:54:45.365Z,10.30
2019-05-12T18:00:10.733Z,9.83
2019-05-12T18:05:16.090Z,10.43
2019-05-12T18:10:23.889Z,12.03
2019-05-12T18:15:33.264Z,11.93
2019-05-12T18:20:39.527Z,10.63
2019-05-12T18:26:03.149Z,12.93
2019-05-12T18:31:08.748Z,11.07
2019-05-12T18:36:14.455Z,10.37
2019-05-12T18:41:19.833Z,7.43
2019-05-12T18:46:25.211Z,8.87
2019-05-12T18:51:30.748Z,8.87
2019-05-12T18:56:36.529Z,7.37
2019-05-12T19:01:43.594Z,10.70
2019-05-12T19:06:54.321Z,11.13
2019-05-12T19:12:22.542Z,10.83
2019-05-12T19:17:25.813Z,12.87
2019-05-12T19:22:31.020Z,10.97
2019-05-12T19:27:36.542Z,11.80
2019-05-12T19:32:41.440Z,10.87
2019-05-12T19:38:06.054Z,15.30
2019-05-12T19:43:13.957Z,10.73
2019-05-12T19:48:24.870Z,15.23
2019-05-12T19:53:25.329Z,16.03
2019-05-12T19:58:30.288Z,15.73
2019-05-12T20:03:35.627Z,17.10
2019-05-12T20:08:40.800Z,13.93
2019-05-12T20:13:45.720Z,13.73
2019-05-12T20:18:50.948Z,15.30
2019-05-12T20:23:56.031Z,13.40
2019-05-12T20:29:01.275Z,14.73
2019-05-12T20:34:25.654Z,12.83
2019-05-12T20:39:31.198Z,17.40
2019-05-12T20:44:36.220Z,14.80
2019-05-12T20:49:45.063Z,16.57
2019-05-12T20:55:07.299Z,17.93
2019-05-12T21:00:14.149Z,17.60
2019-05-12T21:05:20.242Z,17.50
2019-05-12T21:10:37.653Z,17.50
2019-05-12T21:15:45.539Z,18.10
2019-05-12T21:20:52.187Z,21.03
2019-05-12T21:26:15.543Z,19.67
2019-05-12T21:31:26.001Z,22.03
2019-05-12T21:36:29.580Z,20.73
2019-05-12T21:41:34.518Z,21.53
2019-05-12T21:46:47.478Z,23.53
2019-05-12T21:51:50.414Z,22.00
2019-05-12T21:57:12.987Z,29.40
2019-05-12T22:02:19.666Z,22.67
2019-05-12T22:07:29.561Z,20.87
2019-05-12T22:12:33.307Z,21.03
2019-05-12T22:18:00.899Z,21.63
2019-05-12T22:23:10.137Z,25.73
2019-05-12T22:28:13.521Z,21.73
2019-05-12T22:33:18.869Z,23.33
2019-05-12T22:38:24.767Z,20.63
2019-05-12T22:43:31.342Z,21.50
2019-05-12T22:48:40.449Z,20.23
2019-05-12T22:54:07.055Z,22.23
2019-05-12T22:59:09.918Z,20.63
2019-05-12T23:04:15.108Z,28.23
2019-05-12T23:09:27.311Z,26.57
2019-05-12T23:14:27.491Z,31.13
2019-05-12T23:19:34.008Z,25.10
2019-05-12T23:24:40.721Z,31.80
2019-05-12T23:29:46.084Z,29.40
2019-05-12T23:35:10.378Z,27.10
2019-05-12T23:40:16.545Z,26.20
2019-05-12T23:45:24.210Z,32.77
2019-05-12T23:50:48.158Z,25.90
2019-05-12T23:56:05.368Z,30.97
